sensor_id;sensor_type;location;lat;lon;timestamp;pressure;altitude;pressure_sealevel;temperature;humidity
74334;BME280;62753;40.394;-80.022;2022-09-13T00:01:32;96732.96;;;24.82;34.12
74334;BME280;62753;40.394;-80.022;2022-09-13T00:03:57;96737.13;;;24.57;34.05
74334;BME280;62753;40.394;-80.022;2022-09-13T00:06:23;96743.72;;;23.62;35.02
74334;BME280;62753;40.394;-80.022;2022-09-13T00:08:48;96747.00;;;23.25;36.38
74334;BME280;62753;40.394;-80.022;2022-09-13T00:11:16;96749.50;;;24.04;35.61
74334;BME280;62753;40.394;-80.022;2022-09-13T00:13:38;96753.43;;;24.24;35.32
74334;BME280;62753;40.394;-80.022;2022-09-13T00:16:04;96759.52;;;24.63;34.87
74334;BME280;62753;40.394;-80.022;2022-09-13T00:18:29;96756.55;;;24.93;33.68
74334;BME280;62753;40.394;-80.022;2022-09-13T00:21:05;96760.35;;;25.43;32.58
74334;BME280;62753;40.394;-80.022;2022-09-13T00:23:19;96759.42;;;24.27;33.27
74334;BME280;62753;40.394;-80.022;2022-09-13T00:25:45;96762.72;;;25.04;32.42
74334;BME280;62753;40.394;-80.022;2022-09-13T00:28:10;96763.46;;;25.61;31.79
74334;BME280;62753;40.394;-80.022;2022-09-13T00:30:35;96769.02;;;25.83;31.13
74334;BME280;62753;40.394;-80.022;2022-09-13T00:33:00;96770.28;;;25.09;32.06
74334;BME280;62753;40.394;-80.022;2022-09-13T00:35:26;96768.79;;;25.30;33.29
74334;BME280;62753;40.394;-80.022;2022-09-13T00:37:51;96771.15;;;24.60;32.80
74334;BME280;62753;40.394;-80.022;2022-09-13T00:40:16;96771.93;;;24.78;32.40
74334;BME280;62753;40.394;-80.022;2022-09-13T00:42:41;96775.35;;;23.96;33.03
74334;BME280;62753;40.394;-80.022;2022-09-13T00:45:14;96775.14;;;24.81;32.88
74334;BME280;62753;40.394;-80.022;2022-09-13T00:47:36;96778.44;;;25.41;32.95
74334;BME280;62753;40.394;-80.022;2022-09-13T00:50:00;96783.81;;;24.41;33.03
74334;BME280;62753;40.394;-80.022;2022-09-13T00:52:23;96787.51;;;25.32;32.29
74334;BME280;62753;40.394;-80.022;2022-09-13T00:54:50;96790.63;;;23.46;34.82
74334;BME280;62753;40.394;-80.022;2022-09-13T00:57:13;96790.37;;;24.23;35.61
74334;BME280;62753;40.394;-80.022;2022-09-13T00:59:41;96793.53;;;23.21;35.39
74334;BME280;62753;40.394;-80.022;2022-09-13T01:02:03;96798.97;;;24.19;34.62
74334;BME280;62753;40.394;-80.022;2022-09-13T01:04:29;96797.32;;;24.02;34.09
74334;BME280;62753;40.394;-80.022;2022-09-13T01:06:57;96797.56;;;23.98;33.97
74334;BME280;62753;40.394;-80.022;2022-09-13T01:09:19;96802.93;;;23.57;34.23
74334;BME280;62753;40.394;-80.022;2022-09-13T01:11:46;96803.84;;;24.66;33.26
74334;BME280;62753;40.394;-80.022;2022-09-13T01:14:09;96801.67;;;24.95;32.65
74334;BME280;62753;40.394;-80.022;2022-09-13T01:16:34;96800.95;;;24.19;33.45
74334;BME280;62753;40.394;-80.022;2022-09-13T01:19:00;96800.56;;;23.87;33.92
74334;BME280;62753;40.394;-80.022;2022-09-13T01:28:55;96804.18;;;24.03;32.88
74334;BME280;62753;40.394;-80.022;2022-09-13T01:31:09;96801.50;;;23.02;33.76
74334;BME280;62753;40.394;-80.022;2022-09-13T01:33:39;96804.09;;;23.82;33.78
74334;BME280;62753;40.394;-80.022;2022-09-13T01:36:06;96798.69;;;23.61;34.53
74334;BME280;62753;40.394;-80.022;2022-09-13T01:38:36;96804.04;;;23.33;34.30
74334;BME280;62753;40.394;-80.022;2022-09-13T01:40:54;96802.31;;;24.30;32.89
74334;BME280;62753;40.394;-80.022;2022-09-13T01:43:24;96800.37;;;24.19;32.72
74334;BME280;62753;40.394;-80.022;2022-09-13T01:45:43;96805.28;;;24.40;32.38
74334;BME280;62753;40.394;-80.022;2022-09-13T01:48:07;96801.64;;;24.64;32.08
74334;BME280;62753;40.394;-80.022;2022-09-13T01:50:35;96807.34;;;24.97;32.16
74334;BME280;62753;40.394;-80.022;2022-09-13T01:52:55;96806.77;;;24.12;32.22
74334;BME280;62753;40.394;-80.022;2022-09-13T01:55:24;96807.33;;;24.46;32.46
74334;BME280;62753;40.394;-80.022;2022-09-13T01:57:47;96804.48;;;24.22;32.10
74334;BME280;62753;40.394;-80.022;2022-09-13T02:00:11;96807.82;;;24.48;32.02
74334;BME280;62753;40.394;-80.022;2022-09-13T02:02:35;96807.97;;;24.89;31.87
74334;BME280;62753;40.394;-80.022;2022-09-13T02:05:02;96807.72;;;24.71;31.69
74334;BME280;62753;40.394;-80.022;2022-09-13T02:07:26;96809.24;;;25.53;31.61
74334;BME280;62753;40.394;-80.022;2022-09-13T02:09:52;96807.98;;;24.76;30.92
74334;BME280;62753;40.394;-80.022;2022-09-13T02:12:16;96807.99;;;24.24;31.01
74334;BME280;62753;40.394;-80.022;2022-09-13T02:14:42;96807.78;;;24.84;30.79
74334;BME280;62753;40.394;-80.022;2022-09-13T02:17:06;96810.12;;;24.27;30.96
74334;BME280;62753;40.394;-80.022;2022-09-13T02:19:34;96811.31;;;24.05;31.23
74334;BME280;62753;40.394;-80.022;2022-09-13T02:21:59;96810.19;;;24.23;31.29
74334;BME280;62753;40.394;-80.022;2022-09-13T02:24:24;96812.97;;;24.24;31.21
74334;BME280;62753;40.394;-80.022;2022-09-13T02:26:46;96813.30;;;24.61;30.86
74334;BME280;62753;40.394;-80.022;2022-09-13T02:29:13;96812.05;;;23.83;30.82
74334;BME280;62753;40.394;-80.022;2022-09-13T02:31:40;96816.96;;;24.29;30.63
74334;BME280;62753;40.394;-80.022;2022-09-13T02:34:03;96820.81;;;24.34;30.53
74334;BME280;62753;40.394;-80.022;2022-09-13T02:36:28;96821.32;;;23.54;31.49
74334;BME280;62753;40.394;-80.022;2022-09-13T02:38:54;96818.93;;;23.59;31.52
74334;BME280;62753;40.394;-80.022;2022-09-13T02:41:18;96817.26;;;24.08;31.18
74334;BME280;62753;40.394;-80.022;2022-09-13T02:43:47;96818.11;;;24.54;31.07
74334;BME280;62753;40.394;-80.022;2022-09-13T02:46:20;96818.31;;;24.60;31.11
74334;BME280;62753;40.394;-80.022;2022-09-13T02:48:37;96814.50;;;23.77;31.30
74334;BME280;62753;40.394;-80.022;2022-09-13T02:51:01;96813.88;;;24.19;31.28
74334;BME280;62753;40.394;-80.022;2022-09-13T02:53:28;96817.09;;;23.87;31.54
74334;BME280;62753;40.394;-80.022;2022-09-13T02:55:53;96816.76;;;23.91;31.59
74334;BME280;62753;40.394;-80.022;2022-09-13T02:58:18;96817.83;;;23.74;32.02
74334;BME280;62753;40.394;-80.022;2022-09-13T03:00:37;96816.11;;;24.03;32.22
74334;BME280;62753;40.394;-80.022;2022-09-13T03:03:04;96816.24;;;23.65;31.59
74334;BME280;62753;40.394;-80.022;2022-09-13T03:05:28;96818.08;;;23.58;31.65
74334;BME280;62753;40.394;-80.022;2022-09-13T03:07:54;96818.99;;;23.35;31.87
74334;BME280;62753;40.394;-80.022;2022-09-13T03:10:18;96818.41;;;23.45;31.88
74334;BME280;62753;40.394;-80.022;2022-09-13T03:12:56;96815.76;;;23.61;31.70
74334;BME280;62753;40.394;-80.022;2022-09-13T03:15:14;96815.01;;;23.73;31.90
74334;BME280;62753;40.394;-80.022;2022-09-13T03:17:45;96816.82;;;23.41;31.86
74334;BME280;62753;40.394;-80.022;2022-09-13T03:20:07;96817.99;;;23.48;31.98
74334;BME280;62753;40.394;-80.022;2022-09-13T03:22:36;96815.71;;;22.71;32.13
74334;BME280;62753;40.394;-80.022;2022-09-13T03:24:53;96815.21;;;23.05;31.75
74334;BME280;62753;40.394;-80.022;2022-09-13T03:27:19;96816.59;;;23.60;31.66
74334;BME280;62753;40.394;-80.022;2022-09-13T03:29:44;96815.08;;;23.28;31.60
74334;BME280;62753;40.394;-80.022;2022-09-13T03:32:15;96816.51;;;23.57;31.47
74334;BME280;62753;40.394;-80.022;2022-09-13T03:34:37;96818.30;;;23.22;31.62
74334;BME280;62753;40.394;-80.022;2022-09-13T03:36:58;96819.22;;;23.54;31.51
74334;BME280;62753;40.394;-80.022;2022-09-13T03:39:25;96819.14;;;23.22;31.86
74334;BME280;62753;40.394;-80.022;2022-09-13T03:41:50;96822.60;;;23.52;31.70
74334;BME280;62753;40.394;-80.022;2022-09-13T03:44:13;96826.51;;;23.44;31.73
74334;BME280;62753;40.394;-80.022;2022-09-13T03:46:40;96826.80;;;22.80;31.54
74334;BME280;62753;40.394;-80.022;2022-09-13T03:49:03;96829.02;;;23.49;32.01
74334;BME280;62753;40.394;-80.022;2022-09-13T03:51:27;96827.56;;;22.88;31.94
74334;BME280;62753;40.394;-80.022;2022-09-13T03:53:54;96827.38;;;22.48;31.75
74334;BME280;62753;40.394;-80.022;2022-09-13T03:56:19;96823.44;;;23.44;31.85
74334;BME280;62753;40.394;-80.022;2022-09-13T03:58:42;96823.76;;;22.78;32.33
74334;BME280;62753;40.394;-80.022;2022-09-13T04:01:08;96822.24;;;22.93;32.71
74334;BME280;62753;40.394;-80.022;2022-09-13T04:03:33;96824.94;;;22.65;32.96
74334;BME280;62753;40.394;-80.022;2022-09-13T04:05:58;96822.90;;;23.07;33.69
74334;BME280;62753;40.394;-80.022;2022-09-13T04:08:24;96827.31;;;22.58;33.08
74334;BME280;62753;40.394;-80.022;2022-09-13T04:10:50;96826.12;;;22.75;32.96
74334;BME280;62753;40.394;-80.022;2022-09-13T04:13:14;96826.51;;;22.71;33.18
74334;BME280;62753;40.394;-80.022;2022-09-13T04:15:39;96825.88;;;22.78;34.08
74334;BME280;62753;40.394;-80.022;2022-09-13T04:18:04;96830.07;;;22.11;33.53
74334;BME280;62753;40.394;-80.022;2022-09-13T04:20:30;96833.08;;;22.35;33.72
74334;BME280;62753;40.394;-80.022;2022-09-13T04:22:55;96831.27;;;22.13;34.28
74334;BME280;62753;40.394;-80.022;2022-09-13T04:25:21;96829.78;;;22.23;34.49
74334;BME280;62753;40.394;-80.022;2022-09-13T04:27:45;96827.50;;;22.42;34.40
74334;BME280;62753;40.394;-80.022;2022-09-13T04:30:11;96828.58;;;21.99;34.28
74334;BME280;62753;40.394;-80.022;2022-09-13T04:32:36;96825.82;;;22.35;33.54
74334;BME280;62753;40.394;-80.022;2022-09-13T04:35:01;96823.65;;;22.20;33.85
74334;BME280;62753;40.394;-80.022;2022-09-13T04:37:26;96822.46;;;22.41;33.50
74334;BME280;62753;40.394;-80.022;2022-09-13T04:39:51;96822.69;;;22.51;33.30
74334;BME280;62753;40.394;-80.022;2022-09-13T04:42:17;96825.10;;;22.67;32.97
74334;BME280;62753;40.394;-80.022;2022-09-13T04:44:42;96820.18;;;22.73;33.14
74334;BME280;62753;40.394;-80.022;2022-09-13T04:47:08;96819.38;;;22.77;33.61
74334;BME280;62753;40.394;-80.022;2022-09-13T04:49:33;96823.10;;;22.38;33.24
74334;BME280;62753;40.394;-80.022;2022-09-13T04:51:58;96821.52;;;22.40;32.84
74334;BME280;62753;40.394;-80.022;2022-09-13T04:54:23;96817.48;;;21.83;34.02
74334;BME280;62753;40.394;-80.022;2022-09-13T04:56:49;96813.71;;;22.55;33.86
74334;BME280;62753;40.394;-80.022;2022-09-13T04:59:14;96812.30;;;22.28;33.45
74334;BME280;62753;40.394;-80.022;2022-09-13T05:01:39;96811.11;;;21.83;33.93
74334;BME280;62753;40.394;-80.022;2022-09-13T05:04:05;96810.83;;;22.38;33.86
74334;BME280;62753;40.394;-80.022;2022-09-13T05:06:29;96806.11;;;21.70;34.37
74334;BME280;62753;40.394;-80.022;2022-09-13T05:08:55;96803.23;;;21.54;34.45
74334;BME280;62753;40.394;-80.022;2022-09-13T05:11:21;96802.85;;;21.31;33.91
74334;BME280;62753;40.394;-80.022;2022-09-13T05:13:48;96802.06;;;21.80;33.95
74334;BME280;62753;40.394;-80.022;2022-09-13T05:16:10;96799.33;;;21.92;33.62
74334;BME280;62753;40.394;-80.022;2022-09-13T05:18:36;96798.18;;;21.69;34.25
74334;BME280;62753;40.394;-80.022;2022-09-13T05:21:03;96797.67;;;22.02;34.20
74334;BME280;62753;40.394;-80.022;2022-09-13T05:23:27;96797.97;;;22.12;33.77
74334;BME280;62753;40.394;-80.022;2022-09-13T05:25:53;96795.05;;;21.87;34.40
74334;BME280;62753;40.394;-80.022;2022-09-13T05:28:17;96793.26;;;21.72;34.21
74334;BME280;62753;40.394;-80.022;2022-09-13T05:30:42;96791.66;;;21.48;34.51
74334;BME280;62753;40.394;-80.022;2022-09-13T05:33:07;96791.46;;;21.95;34.48
74334;BME280;62753;40.394;-80.022;2022-09-13T05:35:32;96791.60;;;21.55;34.69
74334;BME280;62753;40.394;-80.022;2022-09-13T05:37:57;96791.58;;;21.74;34.71
74334;BME280;62753;40.394;-80.022;2022-09-13T05:40:23;96790.05;;;21.37;34.81
74334;BME280;62753;40.394;-80.022;2022-09-13T05:42:48;96792.92;;;20.91;35.24
74334;BME280;62753;40.394;-80.022;2022-09-13T05:45:14;96794.93;;;21.21;35.39
74334;BME280;62753;40.394;-80.022;2022-09-13T05:47:39;96792.84;;;21.28;34.89
74334;BME280;62753;40.394;-80.022;2022-09-13T05:50:05;96792.67;;;21.40;35.67
74334;BME280;62753;40.394;-80.022;2022-09-13T05:52:30;96787.59;;;21.73;35.41
74334;BME280;62753;40.394;-80.022;2022-09-13T05:54:55;96782.69;;;21.54;34.94
74334;BME280;62753;40.394;-80.022;2022-09-13T05:57:20;96778.74;;;21.58;35.15
74334;BME280;62753;40.394;-80.022;2022-09-13T05:59:45;96776.29;;;21.82;35.44
74334;BME280;62753;40.394;-80.022;2022-09-13T06:02:10;96775.16;;;21.06;35.51
74334;BME280;62753;40.394;-80.022;2022-09-13T06:04:36;96774.49;;;20.90;36.07
74334;BME280;62753;40.394;-80.022;2022-09-13T06:07:01;96774.22;;;21.00;35.30
74334;BME280;62753;40.394;-80.022;2022-09-13T06:09:27;96774.29;;;21.33;35.81
74334;BME280;62753;40.394;-80.022;2022-09-13T06:11:51;96769.93;;;20.60;36.12
74334;BME280;62753;40.394;-80.022;2022-09-13T06:14:17;96768.58;;;20.66;35.84
74334;BME280;62753;40.394;-80.022;2022-09-13T06:16:42;96764.90;;;20.93;36.63
74334;BME280;62753;40.394;-80.022;2022-09-13T06:19:07;96758.99;;;20.82;36.12
74334;BME280;62753;40.394;-80.022;2022-09-13T06:21:33;96757.69;;;21.39;36.03
74334;BME280;62753;40.394;-80.022;2022-09-13T06:23:58;96755.51;;;21.02;36.47
74334;BME280;62753;40.394;-80.022;2022-09-13T06:26:25;96757.55;;;20.55;36.81
74334;BME280;62753;40.394;-80.022;2022-09-13T06:28:50;96753.02;;;20.44;37.24
74334;BME280;62753;40.394;-80.022;2022-09-13T06:31:16;96756.68;;;20.64;37.24
74334;BME280;62753;40.394;-80.022;2022-09-13T06:33:41;96756.99;;;20.36;37.26
74334;BME280;62753;40.394;-80.022;2022-09-13T06:36:07;96755.84;;;20.79;37.80
74334;BME280;62753;40.394;-80.022;2022-09-13T06:38:30;96749.89;;;20.36;37.75
74334;BME280;62753;40.394;-80.022;2022-09-13T06:40:59;96750.83;;;20.25;37.34
74334;BME280;62753;40.394;-80.022;2022-09-13T06:43:21;96748.85;;;20.30;36.76
74334;BME280;62753;40.394;-80.022;2022-09-13T06:45:46;96747.35;;;20.14;36.87
74334;BME280;62753;40.394;-80.022;2022-09-13T06:48:11;96744.28;;;20.48;36.77
74334;BME280;62753;40.394;-80.022;2022-09-13T06:50:36;96745.01;;;19.93;36.87
74334;BME280;62753;40.394;-80.022;2022-09-13T06:53:02;96744.12;;;20.80;36.17
74334;BME280;62753;40.394;-80.022;2022-09-13T06:55:27;96747.23;;;21.04;36.50
74334;BME280;62753;40.394;-80.022;2022-09-13T06:57:52;96744.57;;;19.73;36.51
74334;BME280;62753;40.394;-80.022;2022-09-13T07:00:18;96745.45;;;20.89;35.49
74334;BME280;62753;40.394;-80.022;2022-09-13T07:02:43;96738.87;;;20.80;35.55
74334;BME280;62753;40.394;-80.022;2022-09-13T07:05:08;96735.33;;;20.58;35.38
74334;BME280;62753;40.394;-80.022;2022-09-13T07:07:33;96731.10;;;20.80;35.41
74334;BME280;62753;40.394;-80.022;2022-09-13T07:09:59;96730.01;;;20.85;35.59
74334;BME280;62753;40.394;-80.022;2022-09-13T07:12:24;96725.14;;;20.94;36.04
74334;BME280;62753;40.394;-80.022;2022-09-13T07:14:49;96722.35;;;20.84;36.12
74334;BME280;62753;40.394;-80.022;2022-09-13T07:17:14;96719.52;;;20.80;36.13
74334;BME280;62753;40.394;-80.022;2022-09-13T07:19:40;96721.44;;;20.66;36.35
74334;BME280;62753;40.394;-80.022;2022-09-13T07:22:05;96722.64;;;20.81;35.94
74334;BME280;62753;40.394;-80.022;2022-09-13T07:24:30;96724.32;;;20.80;36.15
74334;BME280;62753;40.394;-80.022;2022-09-13T07:26:55;96725.21;;;20.41;36.07
74334;BME280;62753;40.394;-80.022;2022-09-13T07:29:22;96727.06;;;20.60;36.07
74334;BME280;62753;40.394;-80.022;2022-09-13T07:31:47;96730.41;;;20.52;36.28
74334;BME280;62753;40.394;-80.022;2022-09-13T07:34:13;96729.73;;;20.27;37.12
74334;BME280;62753;40.394;-80.022;2022-09-13T07:36:36;96728.26;;;20.39;36.99
74334;BME280;62753;40.394;-80.022;2022-09-13T07:39:02;96725.06;;;20.46;37.56
74334;BME280;62753;40.394;-80.022;2022-09-13T07:41:28;96732.81;;;20.35;38.32
74334;BME280;62753;40.394;-80.022;2022-09-13T07:43:52;96738.20;;;19.94;37.47
74334;BME280;62753;40.394;-80.022;2022-09-13T07:46:19;96730.59;;;20.43;37.47
74334;BME280;62753;40.394;-80.022;2022-09-13T07:48:44;96726.18;;;20.40;37.30
74334;BME280;62753;40.394;-80.022;2022-09-13T07:51:10;96724.42;;;20.00;38.57
74334;BME280;62753;40.394;-80.022;2022-09-13T07:53:35;96725.40;;;20.09;39.08
74334;BME280;62753;40.394;-80.022;2022-09-13T07:56:01;96724.50;;;19.91;37.96
74334;BME280;62753;40.394;-80.022;2022-09-13T07:58:24;96727.50;;;19.26;40.60
74334;BME280;62753;40.394;-80.022;2022-09-13T08:00:49;96720.74;;;19.52;38.95
74334;BME280;62753;40.394;-80.022;2022-09-13T08:03:15;96714.65;;;19.97;38.61
74334;BME280;62753;40.394;-80.022;2022-09-13T08:05:40;96710.79;;;19.94;37.94
74334;BME280;62753;40.394;-80.022;2022-09-13T08:08:05;96707.95;;;20.07;37.18
74334;BME280;62753;40.394;-80.022;2022-09-13T08:10:31;96705.77;;;19.88;37.38
74334;BME280;62753;40.394;-80.022;2022-09-13T08:12:56;96705.32;;;19.96;37.23
74334;BME280;62753;40.394;-80.022;2022-09-13T08:15:21;96700.42;;;20.01;37.59
74334;BME280;62753;40.394;-80.022;2022-09-13T08:17:46;96698.88;;;20.24;37.09
74334;BME280;62753;40.394;-80.022;2022-09-13T08:20:11;96699.91;;;20.00;36.96
74334;BME280;62753;40.394;-80.022;2022-09-13T08:22:37;96699.61;;;20.22;36.78
74334;BME280;62753;40.394;-80.022;2022-09-13T08:25:02;96696.91;;;20.09;36.44
74334;BME280;62753;40.394;-80.022;2022-09-13T08:27:27;96698.32;;;20.23;36.98
74334;BME280;62753;40.394;-80.022;2022-09-13T08:29:53;96693.75;;;20.26;36.67
74334;BME280;62753;40.394;-80.022;2022-09-13T08:32:18;96688.85;;;20.56;36.77
74334;BME280;62753;40.394;-80.022;2022-09-13T08:34:43;96688.71;;;20.29;36.37
74334;BME280;62753;40.394;-80.022;2022-09-13T08:37:08;96686.84;;;20.50;36.38
74334;BME280;62753;40.394;-80.022;2022-09-13T08:39:34;96686.71;;;20.44;36.20
74334;BME280;62753;40.394;-80.022;2022-09-13T08:42:05;96687.55;;;20.58;36.07
74334;BME280;62753;40.394;-80.022;2022-09-13T08:44:27;96686.59;;;19.84;36.47
74334;BME280;62753;40.394;-80.022;2022-09-13T08:46:51;96688.08;;;20.27;36.49
74334;BME280;62753;40.394;-80.022;2022-09-13T08:49:18;96690.12;;;19.87;36.49
74334;BME280;62753;40.394;-80.022;2022-09-13T08:51:43;96690.02;;;20.53;36.10
74334;BME280;62753;40.394;-80.022;2022-09-13T08:54:07;96687.43;;;21.21;34.89
74334;BME280;62753;40.394;-80.022;2022-09-13T08:56:38;96688.94;;;20.85;34.94
74334;BME280;62753;40.394;-80.022;2022-09-13T08:59:06;96688.39;;;21.68;33.97
74334;BME280;62753;40.394;-80.022;2022-09-13T09:01:32;96687.29;;;21.23;34.56
74334;BME280;62753;40.394;-80.022;2022-09-13T09:03:52;96683.11;;;21.50;34.42
74334;BME280;62753;40.394;-80.022;2022-09-13T09:06:15;96683.72;;;21.24;35.06
74334;BME280;62753;40.394;-80.022;2022-09-13T09:08:40;96686.65;;;20.75;35.53
74334;BME280;62753;40.394;-80.022;2022-09-13T09:11:08;96681.78;;;20.46;36.56
74334;BME280;62753;40.394;-80.022;2022-09-13T09:13:30;96680.34;;;20.34;36.01
74334;BME280;62753;40.394;-80.022;2022-09-13T09:15:56;96680.03;;;20.33;36.48
74334;BME280;62753;40.394;-80.022;2022-09-13T09:18:22;96683.81;;;20.88;36.66
74334;BME280;62753;40.394;-80.022;2022-09-13T09:20:45;96686.10;;;19.91;36.57
74334;BME280;62753;40.394;-80.022;2022-09-13T09:23:14;96688.94;;;19.68;36.94
74334;BME280;62753;40.394;-80.022;2022-09-13T09:25:35;96688.20;;;20.43;36.08
74334;BME280;62753;40.394;-80.022;2022-09-13T09:28:00;96688.30;;;20.72;34.92
74334;BME280;62753;40.394;-80.022;2022-09-13T09:30:33;96687.39;;;21.14;35.00
74334;BME280;62753;40.394;-80.022;2022-09-13T09:33:00;96681.99;;;19.63;36.30
74334;BME280;62753;40.394;-80.022;2022-09-13T09:35:28;96674.14;;;19.42;37.91
74334;BME280;62753;40.394;-80.022;2022-09-13T09:37:41;96679.58;;;18.66;40.11
74334;BME280;62753;40.394;-80.022;2022-09-13T09:40:11;96677.41;;;17.87;41.52
74334;BME280;62753;40.394;-80.022;2022-09-13T09:42:37;96679.64;;;18.32;40.37
74334;BME280;62753;40.394;-80.022;2022-09-13T09:44:59;96677.08;;;18.81;40.59
74334;BME280;62753;40.394;-80.022;2022-09-13T09:47:24;96676.18;;;18.89;40.32
74334;BME280;62753;40.394;-80.022;2022-09-13T09:49:50;96676.01;;;19.08;40.18
74334;BME280;62753;40.394;-80.022;2022-09-13T09:52:16;96674.32;;;19.18;39.51
74334;BME280;62753;40.394;-80.022;2022-09-13T09:54:38;96671.66;;;19.05;40.06
74334;BME280;62753;40.394;-80.022;2022-09-13T09:57:03;96669.30;;;18.95;39.94
74334;BME280;62753;40.394;-80.022;2022-09-13T09:59:30;96668.69;;;18.65;40.11
74334;BME280;62753;40.394;-80.022;2022-09-13T10:01:54;96672.41;;;19.17;39.67
74334;BME280;62753;40.394;-80.022;2022-09-13T10:04:20;96671.88;;;19.49;39.39
74334;BME280;62753;40.394;-80.022;2022-09-13T10:06:44;96667.28;;;18.93;40.13
74334;BME280;62753;40.394;-80.022;2022-09-13T10:09:15;96670.83;;;19.08;39.63
74334;BME280;62753;40.394;-80.022;2022-09-13T10:11:40;96672.47;;;18.40;41.22
74334;BME280;62753;40.394;-80.022;2022-09-13T10:14:01;96673.70;;;19.54;39.45
74334;BME280;62753;40.394;-80.022;2022-09-13T10:16:27;96674.06;;;19.11;38.99
74334;BME280;62753;40.394;-80.022;2022-09-13T10:18:50;96672.27;;;19.10;39.70
74334;BME280;62753;40.394;-80.022;2022-09-13T10:21:23;96670.61;;;19.69;38.76
74334;BME280;62753;40.394;-80.022;2022-09-13T10:23:41;96672.68;;;19.56;39.03
74334;BME280;62753;40.394;-80.022;2022-09-13T10:26:09;96668.04;;;19.73;38.25
74334;BME280;62753;40.394;-80.022;2022-09-13T10:28:34;96669.07;;;19.25;39.39
74334;BME280;62753;40.394;-80.022;2022-09-13T10:30:59;96670.33;;;19.62;39.27
74334;BME280;62753;40.394;-80.022;2022-09-13T10:33:28;96667.67;;;19.56;38.98
74334;BME280;62753;40.394;-80.022;2022-09-13T10:35:48;96668.52;;;19.55;39.21
74334;BME280;62753;40.394;-80.022;2022-09-13T10:38:21;96667.75;;;18.16;41.48
74334;BME280;62753;40.394;-80.022;2022-09-13T10:40:38;96671.01;;;19.53;39.69
74334;BME280;62753;40.394;-80.022;2022-09-13T10:43:05;96672.72;;;19.39;39.42
74334;BME280;62753;40.394;-80.022;2022-09-13T10:45:29;96674.08;;;19.32;39.56
74334;BME280;62753;40.394;-80.022;2022-09-13T10:47:57;96673.25;;;19.37;39.40
74334;BME280;62753;40.394;-80.022;2022-09-13T10:50:21;96681.69;;;19.38;40.26
74334;BME280;62753;40.394;-80.022;2022-09-13T10:52:46;96684.00;;;19.51;40.13
74334;BME280;62753;40.394;-80.022;2022-09-13T10:55:28;96682.04;;;19.19;40.72
74334;BME280;62753;40.394;-80.022;2022-09-13T10:57:36;96687.47;;;19.57;40.33
74334;BME280;62753;40.394;-80.022;2022-09-13T11:00:04;96687.52;;;19.27;40.29
74334;BME280;62753;40.394;-80.022;2022-09-13T11:02:38;96689.77;;;19.04;40.44
74334;BME280;62753;40.394;-80.022;2022-09-13T11:05:03;96689.19;;;19.48;40.77
74334;BME280;62753;40.394;-80.022;2022-09-13T11:07:28;96685.56;;;19.54;40.94
74334;BME280;62753;40.394;-80.022;2022-09-13T11:09:48;96684.42;;;19.83;40.75
74334;BME280;62753;40.394;-80.022;2022-09-13T11:12:14;96684.19;;;19.48;40.06
74334;BME280;62753;40.394;-80.022;2022-09-13T11:14:45;96682.09;;;19.58;40.94
74334;BME280;62753;40.394;-80.022;2022-09-13T11:17:04;96683.09;;;19.27;41.69
74334;BME280;62753;40.394;-80.022;2022-09-13T11:19:35;96686.64;;;18.88;41.65
74334;BME280;62753;40.394;-80.022;2022-09-13T11:21:58;96687.28;;;19.49;40.77
74334;BME280;62753;40.394;-80.022;2022-09-13T11:24:25;96691.85;;;18.63;42.94
74334;BME280;62753;40.394;-80.022;2022-09-13T11:26:48;96689.85;;;18.42;42.43
74334;BME280;62753;40.394;-80.022;2022-09-13T11:29:12;96686.38;;;18.80;42.73
74334;BME280;62753;40.394;-80.022;2022-09-13T11:31:41;96683.84;;;18.16;43.65
74334;BME280;62753;40.394;-80.022;2022-09-13T11:34:10;96685.83;;;18.26;43.55
74334;BME280;62753;40.394;-80.022;2022-09-13T11:38:56;96696.52;;;19.03;42.51
74334;BME280;62753;40.394;-80.022;2022-09-13T11:41:21;96698.46;;;19.30;41.82
74334;BME280;62753;40.394;-80.022;2022-09-13T11:43:46;96701.53;;;18.52;42.95
74334;BME280;62753;40.394;-80.022;2022-09-13T11:46:08;96700.54;;;18.92;42.33
74334;BME280;62753;40.394;-80.022;2022-09-13T11:50:57;96700.83;;;19.22;42.49
74334;BME280;62753;40.394;-80.022;2022-09-13T11:53:31;96697.69;;;18.52;42.37
74334;BME280;62753;40.394;-80.022;2022-09-13T11:55:46;96703.80;;;19.58;42.91
74334;BME280;62753;40.394;-80.022;2022-09-13T11:58:12;96705.37;;;18.68;42.88
74334;BME280;62753;40.394;-80.022;2022-09-13T12:00:39;96707.95;;;18.75;42.46
74334;BME280;62753;40.394;-80.022;2022-09-13T12:03:04;96710.92;;;18.98;42.16
74334;BME280;62753;40.394;-80.022;2022-09-13T12:05:27;96708.70;;;18.66;42.81
74334;BME280;62753;40.394;-80.022;2022-09-13T12:07:52;96708.50;;;18.27;43.39
74334;BME280;62753;40.394;-80.022;2022-09-13T12:10:18;96709.20;;;18.36;43.84
74334;BME280;62753;40.394;-80.022;2022-09-13T12:12:42;96708.58;;;18.84;43.38
74334;BME280;62753;40.394;-80.022;2022-09-13T12:15:13;96712.52;;;18.69;43.45
74334;BME280;62753;40.394;-80.022;2022-09-13T12:17:37;96714.56;;;18.69;43.29
74334;BME280;62753;40.394;-80.022;2022-09-13T12:19:58;96713.80;;;19.46;42.19
74334;BME280;62753;40.394;-80.022;2022-09-13T12:22:22;96719.65;;;19.03;42.70
74334;BME280;62753;40.394;-80.022;2022-09-13T12:24:50;96714.72;;;19.25;42.35
74334;BME280;62753;40.394;-80.022;2022-09-13T12:27:20;96713.03;;;19.36;42.06
74334;BME280;62753;40.394;-80.022;2022-09-13T12:29:43;96713.91;;;18.98;43.30
74334;BME280;62753;40.394;-80.022;2022-09-13T12:32:05;96712.16;;;19.90;41.45
74334;BME280;62753;40.394;-80.022;2022-09-13T12:34:36;96715.99;;;19.74;40.70
74334;BME280;62753;40.394;-80.022;2022-09-13T12:37:06;96713.25;;;20.76;39.69
74334;BME280;62753;40.394;-80.022;2022-09-13T12:41:52;96711.60;;;20.35;40.02
74334;BME280;62753;40.394;-80.022;2022-09-13T12:44:21;96712.22;;;20.26;39.53